Time;durP1;ratioP1;P1;durP2;ratioP2;P2;SDS_P1;SDS_P2;PMS_P1;PMS_P2;Temp;Humidity;BMP_temperature;BMP_pressure;BME280_temperature;BME280_humidity;BME280_pressure;Samples;Min_cycle;Max_cycle;Signal;HPM_P1;HPM_P2
2021/11/25 00:01:56;;;;;;;25.87;10.37;;;;;;;;;;6232075;23;20229;-89
2021/11/25 00:05:09;;;;;;;36.50;11.10;;;;;;;;;;6231828;23;20163;-89
2021/11/25 00:08:54;;;;;;;38.20;11.63;;;;;;;;;;6233017;23;20172;-89
2021/11/25 00:12:08;;;;;;;47.30;11.97;;;;;;;;;;6230991;23;20155;-89
2021/11/25 00:15:20;;;;;;;40.50;11.63;;;;;;;;;;6231046;23;20167;-89
2021/11/25 00:18:32;;;;;;;33.87;11.13;;;;;;;;;;6230567;23;20175;-90
2021/11/25 00:21:44;;;;;;;27.60;11.87;;;;;;;;;;6232471;23;20166;-89
2021/11/25 00:24:56;;;;;;;47.87;11.90;;;;;;;;;;6232177;23;20395;-90
2021/11/25 00:28:10;;;;;;;39.00;11.00;;;;;;;;;;6231240;23;20162;-88
2021/11/25 00:31:22;;;;;;;37.17;11.33;;;;;;;;;;6231310;23;20268;-89
2021/11/25 00:34:34;;;;;;;50.87;11.53;;;;;;;;;;6249213;23;20199;-88
2021/11/25 00:37:46;;;;;;;29.33;11.30;;;;;;;;;;6231922;23;20239;-89
2021/11/25 00:41:03;;;;;;;35.60;11.93;;;;;;;;;;6232950;23;20195;-91
2021/11/25 00:44:17;;;;;;;36.87;10.97;;;;;;;;;;6234001;23;20172;-86
2021/11/25 00:47:29;;;;;;;28.87;11.13;;;;;;;;;;6231251;23;20194;-90
2021/11/25 00:50:42;;;;;;;22.07;9.93;;;;;;;;;;6234110;23;20171;-89
2021/11/25 00:53:55;;;;;;;29.13;9.70;;;;;;;;;;6233310;23;20179;-89
2021/11/25 00:57:06;;;;;;;32.97;10.80;;;;;;;;;;6230588;23;20216;-88
2021/11/25 01:00:22;;;;;;;29.80;11.10;;;;;;;;;;6248478;23;20182;-89
2021/11/25 01:03:33;;;;;;;27.90;11.90;;;;;;;;;;6231924;23;20174;-89
2021/11/25 01:07:04;;;;;;;25.43;10.10;;;;;;;;;;6231485;23;20194;-89
2021/11/25 01:10:21;;;;;;;23.40;10.80;;;;;;;;;;6231558;23;20170;-88
2021/11/25 01:13:32;;;;;;;24.10;10.20;;;;;;;;;;6230759;23;20171;-91
2021/11/25 01:16:46;;;;;;;22.93;10.63;;;;;;;;;;6231650;23;20224;-89
2021/11/25 01:19:59;;;;;;;31.60;12.43;;;;;;;;;;6231966;23;20251;-90
2021/11/25 01:23:14;;;;;;;39.97;12.33;;;;;;;;;;6231490;23;20206;-92
2021/11/25 01:26:25;;;;;;;39.70;12.27;;;;;;;;;;6232300;23;20195;-89
2021/11/25 01:29:38;;;;;;;36.33;11.37;;;;;;;;;;6233317;23;20171;-88
2021/11/25 01:32:52;;;;;;;24.80;11.13;;;;;;;;;;6232340;23;20167;-89
2021/11/25 01:36:05;;;;;;;28.33;12.00;;;;;;;;;;6231820;23;20218;-89
2021/11/25 01:39:18;;;;;;;23.73;11.00;;;;;;;;;;6230621;23;20670;-88
2021/11/25 01:42:29;;;;;;;27.37;11.47;;;;;;;;;;6230658;23;20625;-88
2021/11/25 01:45:41;;;;;;;27.10;11.23;;;;;;;;;;6231855;23;20170;-91
2021/11/25 01:48:54;;;;;;;25.37;10.77;;;;;;;;;;6232492;23;20155;-87
2021/11/25 01:52:07;;;;;;;23.23;10.40;;;;;;;;;;6232786;23;20623;-89
2021/11/25 01:55:21;;;;;;;23.77;11.57;;;;;;;;;;6234136;23;20220;-90
2021/11/25 01:58:33;;;;;;;22.33;10.40;;;;;;;;;;6233945;23;20175;-89
2021/11/25 02:01:46;;;;;;;22.80;10.57;;;;;;;;;;6234591;23;20167;-89
2021/11/25 02:04:59;;;;;;;22.73;10.13;;;;;;;;;;6233147;23;20620;-90
2021/11/25 02:08:11;;;;;;;27.20;11.50;;;;;;;;;;6232784;23;20187;-89
2021/11/25 02:11:24;;;;;;;37.57;13.53;;;;;;;;;;6232551;23;20494;-89
2021/11/25 02:14:36;;;;;;;30.33;11.10;;;;;;;;;;6232296;23;20192;-88
2021/11/25 02:17:48;;;;;;;27.40;11.77;;;;;;;;;;6233992;23;20158;-89
2021/11/25 02:21:03;;;;;;;34.33;11.93;;;;;;;;;;6232284;23;20238;-88
2021/11/25 02:24:14;;;;;;;27.97;11.97;;;;;;;;;;6232024;23;20179;-89
2021/11/25 02:27:25;;;;;;;26.20;12.30;;;;;;;;;;6232408;23;20195;-91
2021/11/25 02:30:37;;;;;;;26.60;11.80;;;;;;;;;;6233555;23;20186;-88
2021/11/25 02:33:50;;;;;;;25.40;10.97;;;;;;;;;;6233205;23;20606;-90
2021/11/25 02:37:03;;;;;;;25.13;11.47;;;;;;;;;;6233090;23;20179;-89
2021/11/25 02:40:17;;;;;;;28.50;12.13;;;;;;;;;;6230982;23;20195;-91
2021/11/25 02:43:30;;;;;;;26.13;11.03;;;;;;;;;;6231357;23;20739;-90
2021/11/25 02:46:42;;;;;;;26.17;11.87;;;;;;;;;;6232170;23;20199;-91
2021/11/25 02:49:55;;;;;;;25.20;11.17;;;;;;;;;;6217061;23;20167;-88
2021/11/25 02:53:09;;;;;;;25.93;10.90;;;;;;;;;;6233251;23;20583;-91
2021/11/25 02:56:22;;;;;;;29.47;12.00;;;;;;;;;;6232690;23;20250;-89
2021/11/25 02:59:34;;;;;;;30.80;12.53;;;;;;;;;;6233450;23;20174;-91
2021/11/25 03:02:46;;;;;;;30.43;12.57;;;;;;;;;;6232588;23;20163;-92
2021/11/25 03:05:58;;;;;;;35.67;12.47;;;;;;;;;;6232167;23;20261;-91
2021/11/25 03:09:12;;;;;;;29.03;12.60;;;;;;;;;;6231320;23;20573;-89
2021/11/25 03:12:23;;;;;;;30.40;12.20;;;;;;;;;;6232520;23;20222;-88
2021/11/25 03:15:35;;;;;;;28.37;12.30;;;;;;;;;;6231435;23;20266;-89
2021/11/25 03:18:48;;;;;;;34.27;11.70;;;;;;;;;;6232101;23;20179;-89
2021/11/25 03:22:00;;;;;;;39.03;12.53;;;;;;;;;;6231589;23;20175;-88
2021/11/25 03:25:13;;;;;;;32.73;13.27;;;;;;;;;;6230622;23;20228;-91
2021/11/25 03:28:25;;;;;;;37.47;13.63;;;;;;;;;;6232858;23;20203;-89
2021/11/25 03:31:37;;;;;;;29.53;12.00;;;;;;;;;;6230768;23;20175;-88
2021/11/25 03:34:49;;;;;;;26.60;11.87;;;;;;;;;;6231736;23;20175;-88
2021/11/25 03:38:01;;;;;;;24.93;10.90;;;;;;;;;;6231700;23;20170;-89
2021/11/25 03:41:16;;;;;;;26.40;11.33;;;;;;;;;;6233054;23;20186;-89
2021/11/25 03:44:27;;;;;;;23.93;11.37;;;;;;;;;;6232305;23;20525;-89
2021/11/25 03:47:41;;;;;;;28.70;11.70;;;;;;;;;;6231643;23;20198;-89
2021/11/25 03:50:52;;;;;;;25.43;11.23;;;;;;;;;;6231248;23;20246;-89
2021/11/25 03:54:05;;;;;;;27.37;11.70;;;;;;;;;;6232917;23;20258;-88
2021/11/25 03:57:19;;;;;;;25.80;11.07;;;;;;;;;;6231956;23;20225;-88
2021/11/25 04:00:32;;;;;;;24.40;11.47;;;;;;;;;;6231764;23;20211;-88
2021/11/25 04:03:44;;;;;;;24.43;10.50;;;;;;;;;;6231729;23;20277;-88
2021/11/25 04:06:56;;;;;;;23.50;11.20;;;;;;;;;;6231300;23;20155;-89
2021/11/25 04:10:09;;;;;;;27.37;11.47;;;;;;;;;;6231326;23;20535;-89
2021/11/25 04:13:21;;;;;;;27.63;10.77;;;;;;;;;;6231467;23;20167;-88
2021/11/25 04:16:33;;;;;;;35.37;12.43;;;;;;;;;;6230907;23;20221;-90
2021/11/25 04:19:45;;;;;;;26.93;11.53;;;;;;;;;;6231010;23;20163;-88
2021/11/25 04:22:58;;;;;;;32.40;13.07;;;;;;;;;;6231101;23;20203;-88
2021/11/25 04:26:10;;;;;;;29.67;12.27;;;;;;;;;;6231162;23;20211;-89
2021/11/25 04:29:25;;;;;;;33.13;13.17;;;;;;;;;;6230212;23;20172;-88
2021/11/25 04:36:09;;;;;;;27.53;12.10;;;;;;;;;;6232279;23;20163;-87
2021/11/25 04:39:22;;;;;;;31.07;13.07;;;;;;;;;;6232103;23;20731;-90
2021/11/25 04:42:33;;;;;;;26.87;11.90;;;;;;;;;;6230738;23;20171;-90
2021/11/25 04:45:47;;;;;;;30.63;12.90;;;;;;;;;;6231859;23;20160;-90
2021/11/25 04:48:59;;;;;;;27.87;12.07;;;;;;;;;;6231125;23;20259;-89
2021/11/25 04:52:12;;;;;;;43.23;15.70;;;;;;;;;;6232315;23;20166;-87
2021/11/25 04:55:23;;;;;;;39.83;13.90;;;;;;;;;;6231040;23;20618;-88
2021/11/25 04:58:35;;;;;;;41.57;16.37;;;;;;;;;;6229902;23;20220;-89
2021/11/25 05:02:23;;;;;;;37.60;14.77;;;;;;;;;;6231398;23;20163;-90
2021/11/25 05:06:06;;;;;;;33.97;14.70;;;;;;;;;;6230950;23;20159;-91
2021/11/25 05:09:20;;;;;;;39.13;15.67;;;;;;;;;;6231622;23;20203;-89
2021/11/25 05:12:33;;;;;;;44.27;15.77;;;;;;;;;;6231321;23;20179;-88
2021/11/25 05:15:45;;;;;;;36.93;14.03;;;;;;;;;;6232750;23;20167;-89
2021/11/25 05:18:57;;;;;;;51.20;18.40;;;;;;;;;;6233459;23;20178;-89
2021/11/25 05:22:09;;;;;;;47.20;17.93;;;;;;;;;;6231848;23;20166;-88
2021/11/25 05:25:22;;;;;;;54.10;18.23;;;;;;;;;;6229959;23;20179;-90
2021/11/25 05:28:34;;;;;;;47.97;16.73;;;;;;;;;;6232005;23;20190;-89
2021/11/25 05:31:46;;;;;;;50.60;17.93;;;;;;;;;;6232120;23;20162;-90
2021/11/25 05:34:58;;;;;;;52.73;17.70;;;;;;;;;;6229982;23;20172;-90
2021/11/25 05:38:10;;;;;;;44.00;16.50;;;;;;;;;;6231108;23;20232;-89
2021/11/25 05:41:23;;;;;;;47.63;17.67;;;;;;;;;;6232266;23;20199;-89
2021/11/25 05:44:35;;;;;;;49.33;17.47;;;;;;;;;;6233851;23;20226;-90
2021/11/25 05:47:47;;;;;;;52.67;19.03;;;;;;;;;;6233890;23;20195;-89
2021/11/25 05:51:00;;;;;;;51.80;17.47;;;;;;;;;;6232607;23;20223;-88
2021/11/25 05:54:12;;;;;;;52.10;19.07;;;;;;;;;;6231621;23;20211;-91
2021/11/25 05:57:26;;;;;;;52.63;17.97;;;;;;;;;;6231788;23;20275;-89
2021/11/25 06:00:38;;;;;;;49.47;17.33;;;;;;;;;;6233990;23;20501;-90
2021/11/25 06:03:50;;;;;;;47.67;16.53;;;;;;;;;;6232575;23;20179;-90
2021/11/25 06:07:05;;;;;;;44.57;16.63;;;;;;;;;;6232170;23;20171;-89
2021/11/25 06:10:17;;;;;;;51.10;17.10;;;;;;;;;;6231881;23;20175;-86
2021/11/25 06:13:31;;;;;;;41.80;15.90;;;;;;;;;;6231651;23;20203;-89
2021/11/25 06:16:44;;;;;;;51.63;17.80;;;;;;;;;;6232373;23;20167;-88
2021/11/25 06:19:55;;;;;;;47.80;16.60;;;;;;;;;;6232816;23;20253;-89
2021/11/25 06:23:08;;;;;;;48.73;16.63;;;;;;;;;;6231893;23;20171;-87
2021/11/25 06:26:21;;;;;;;50.93;20.30;;;;;;;;;;6232748;23;20167;-89
2021/11/25 06:29:36;;;;;;;54.33;19.87;;;;;;;;;;6234471;23;20235;-90
2021/11/25 06:32:49;;;;;;;51.40;18.30;;;;;;;;;;6232859;23;20155;-89
2021/11/25 06:36:02;;;;;;;45.77;16.17;;;;;;;;;;6232869;23;20235;-90
2021/11/25 06:39:14;;;;;;;55.97;18.33;;;;;;;;;;6234532;23;20214;-90
2021/11/25 06:42:27;;;;;;;47.63;16.60;;;;;;;;;;6234733;23;20211;-90
2021/11/25 06:45:42;;;;;;;48.00;16.87;;;;;;;;;;6233510;23;20269;-90
2021/11/25 06:48:54;;;;;;;64.30;18.87;;;;;;;;;;6234096;23;20203;-88
2021/11/25 06:52:07;;;;;;;45.63;17.43;;;;;;;;;;6233071;23;20594;-90
2021/11/25 06:55:19;;;;;;;60.37;19.30;;;;;;;;;;6233346;23;20159;-89
2021/11/25 06:58:31;;;;;;;47.53;18.23;;;;;;;;;;6235265;23;20175;-89
2021/11/25 07:01:46;;;;;;;53.77;19.97;;;;;;;;;;6234055;23;20183;-91
2021/11/25 07:04:58;;;;;;;58.57;18.50;;;;;;;;;;6234105;23;20175;-91
2021/11/25 07:08:10;;;;;;;45.40;16.57;;;;;;;;;;6233444;23;20206;-91
2021/11/25 07:11:24;;;;;;;55.43;18.33;;;;;;;;;;6233631;23;20183;-89
2021/11/25 07:14:37;;;;;;;51.43;17.83;;;;;;;;;;6236972;23;20273;-88
2021/11/25 07:17:51;;;;;;;52.43;18.00;;;;;;;;;;6236707;23;20175;-90
2021/11/25 07:21:03;;;;;;;52.60;19.27;;;;;;;;;;6237228;23;20206;-89
2021/11/25 07:24:16;;;;;;;49.87;17.13;;;;;;;;;;6240081;23;20183;-91
2021/11/25 07:27:30;;;;;;;54.00;19.77;;;;;;;;;;6236447;23;20159;-90
2021/11/25 07:34:24;;;;;;;64.23;22.17;;;;;;;;;;6235992;23;20206;-91
2021/11/25 07:37:38;;;;;;;57.53;19.50;;;;;;;;;;6233705;23;20217;-90
2021/11/25 07:40:52;;;;;;;54.83;19.03;;;;;;;;;;6235587;23;20238;-89
2021/11/25 07:44:05;;;;;;;61.67;22.10;;;;;;;;;;6235511;23;20195;-88
2021/11/25 07:47:21;;;;;;;64.17;23.10;;;;;;;;;;6232858;23;20163;-90
2021/11/25 07:50:34;;;;;;;61.97;21.23;;;;;;;;;;6236888;23;20496;-90
2021/11/25 07:53:49;;;;;;;81.77;27.70;;;;;;;;;;6237310;23;20183;-90
2021/11/25 07:57:07;;;;;;;63.70;22.37;;;;;;;;;;6237437;23;20214;-90
2021/11/25 08:00:21;;;;;;;55.23;19.77;;;;;;;;;;6236662;23;20170;-92
2021/11/25 08:03:36;;;;;;;58.93;20.77;;;;;;;;;;6235199;23;20158;-90
2021/11/25 08:06:51;;;;;;;57.30;20.40;;;;;;;;;;6220765;23;20243;-89
2021/11/25 08:10:20;;;;;;;58.00;20.70;;;;;;;;;;6238292;23;20231;-90
2021/11/25 08:17:00;;;;;;;54.80;20.93;;;;;;;;;;6240571;23;20235;-90
2021/11/25 08:20:16;;;;;;;67.93;23.10;;;;;;;;;;6236377;23;20171;-93
2021/11/25 08:27:09;;;;;;;75.77;24.23;;;;;;;;;;6235484;23;20170;-90
2021/11/25 08:30:23;;;;;;;80.87;24.43;;;;;;;;;;6234395;23;20223;-92
2021/11/25 08:33:36;;;;;;;75.27;24.07;;;;;;;;;;6234433;23;20171;-93
2021/11/25 14:43:46;;;;;;;90.73;28.60;;;;;;;;;;6175341;22;20364;-89
2021/11/25 14:47:03;;;;;;;92.27;29.23;;;;;;;;;;6187854;23;20168;-91
2021/11/25 14:50:34;;;;;;;93.27;28.73;;;;;;;;;;6189327;23;20223;-89
2021/11/25 14:53:47;;;;;;;86.40;28.13;;;;;;;;;;6189122;23;20179;-91
2021/11/25 14:57:06;;;;;;;85.10;29.40;;;;;;;;;;6189803;23;20199;-92
2021/11/25 15:00:25;;;;;;;84.63;28.47;;;;;;;;;;6189325;23;20232;-90
2021/11/25 15:03:58;;;;;;;99.40;28.67;;;;;;;;;;6189168;23;20172;-90
2021/11/25 23:10:33;;;;;;;67.23;20.63;;;;;;;;;;6191164;22;20451;-90
2021/11/25 23:13:46;;;;;;;70.60;20.43;;;;;;;;;;6245933;22;20702;-91
2021/11/25 23:16:58;;;;;;;63.20;20.93;;;;;;;;;;6246519;22;20589;-91
2021/11/25 23:20:12;;;;;;;70.47;22.20;;;;;;;;;;6247002;22;20209;-90
2021/11/25 23:23:24;;;;;;;72.10;21.97;;;;;;;;;;6247128;23;20228;-89
2021/11/25 23:26:39;;;;;;;75.87;21.07;;;;;;;;;;6247940;23;20210;-90
2021/11/25 23:29:51;;;;;;;60.00;19.30;;;;;;;;;;6248509;23;20222;-91
2021/11/25 23:33:05;;;;;;;70.17;21.30;;;;;;;;;;6248011;22;20684;-91
2021/11/25 23:36:19;;;;;;;69.43;22.20;;;;;;;;;;6247796;23;20154;-90
2021/11/25 23:39:32;;;;;;;71.27;21.30;;;;;;;;;;6248961;22;20311;-92
2021/11/25 23:42:47;;;;;;;74.17;22.73;;;;;;;;;;6249538;22;20170;-90
2021/11/25 23:45:59;;;;;;;73.23;21.63;;;;;;;;;;6249425;23;20182;-90
2021/11/25 23:49:14;;;;;;;76.57;21.27;;;;;;;;;;6247019;23;20194;-90
2021/11/25 23:52:27;;;;;;;72.47;21.20;;;;;;;;;;6247207;23;20181;-89
2021/11/25 23:55:39;;;;;;;72.07;21.07;;;;;;;;;;6248216;22;20225;-90
2021/11/25 23:58:53;;;;;;;72.37;21.47;;;;;;;;;;6247405;22;20167;-90
